Time;durP1;ratioP1;P1;durP2;ratioP2;P2;SDS_P1;SDS_P2;PMS_P1;PMS_P2;Temp;Humidity;BMP_temperature;BMP_pressure;BME280_temperature;BME280_humidity;BME280_pressure;Samples;Min_cycle;Max_cycle;Signal;HPM_P1;HPM_P2
2022/03/27 00:01:00;;;;;;;9.45;6.35;;;6.60;99.90;;;;;;5040277;28;20431;-83
2022/03/27 00:03:26;;;;;;;8.75;6.47;;;6.70;99.90;;;;;;5039201;28;20474;-84
2022/03/27 00:05:51;;;;;;;8.70;6.45;;;6.70;99.90;;;;;;5041985;28;20095;-83
2022/03/27 00:08:17;;;;;;;8.05;6.25;;;6.60;99.90;;;;;;5049762;28;20059;-84
2022/03/27 00:13:27;;;;;;;8.70;6.43;;;6.70;99.90;;;;;;5054097;28;20043;-84
2022/03/27 00:15:58;;;;;;;12.23;6.70;;;6.60;99.90;;;;;;5039686;28;20037;-84
2022/03/27 00:18:24;;;;;;;11.38;6.80;;;6.60;99.90;;;;;;5031647;28;20042;-84
2022/03/27 00:20:51;;;;;;;12.38;7.20;;;6.50;99.90;;;;;;5051235;28;20033;-83
2022/03/27 00:23:16;;;;;;;9.63;6.55;;;6.60;99.90;;;;;;5049674;28;20056;-84
2022/03/27 00:25:45;;;;;;;11.95;6.90;;;6.50;99.90;;;;;;5037323;28;20044;-84
2022/03/27 00:28:12;;;;;;;8.48;6.68;;;6.50;99.90;;;;;;5036211;28;20029;-83
2022/03/27 00:30:38;;;;;;;9.40;6.20;;;6.60;99.90;;;;;;5053040;28;20036;-83
2022/03/27 00:33:04;;;;;;;11.50;7.28;;;6.60;99.90;;;;;;5038177;28;20037;-83
2022/03/27 00:35:33;;;;;;;9.45;6.65;;;6.60;99.90;;;;;;5033491;28;20122;-83
2022/03/27 00:38:00;;;;;;;10.43;6.82;;;6.60;99.90;;;;;;5036335;28;20093;-83
2022/03/27 00:40:25;;;;;;;11.98;7.03;;;6.60;99.90;;;;;;5047020;28;20429;-83
2022/03/27 00:42:51;;;;;;;10.13;6.80;;;6.60;99.90;;;;;;5050936;28;20500;-83
2022/03/27 00:45:17;;;;;;;12.13;6.57;;;6.60;99.90;;;;;;5054168;28;20056;-83
2022/03/27 00:47:44;;;;;;;8.60;6.60;;;6.60;99.90;;;;;;5052786;28;20041;-83
2022/03/27 00:50:10;;;;;;;11.85;7.20;;;6.60;99.90;;;;;;5039720;28;20115;-83
2022/03/27 00:52:35;;;;;;;10.02;6.85;;;6.60;99.90;;;;;;5036758;28;20511;-84
2022/03/27 00:55:03;;;;;;;10.07;6.75;;;6.60;99.90;;;;;;5038060;28;20132;-83
2022/03/27 00:57:31;;;;;;;8.82;6.82;;;6.70;99.90;;;;;;5066931;28;20112;-84
2022/03/27 01:00:00;;;;;;;12.93;7.25;;;6.70;99.90;;;;;;5050691;28;20330;-83
2022/03/27 01:02:28;;;;;;;8.90;6.65;;;6.70;99.90;;;;;;5052943;28;20115;-84
2022/03/27 01:04:58;;;;;;;12.27;6.95;;;6.70;99.90;;;;;;5047208;28;20074;-83
2022/03/27 01:07:27;;;;;;;9.68;7.53;;;6.70;99.90;;;;;;5055477;28;20129;-83
2022/03/27 01:09:55;;;;;;;13.30;7.35;;;6.70;99.90;;;;;;5048194;28;20040;-83
2022/03/27 01:12:45;;;;;;;14.88;7.53;;;6.70;99.90;;;;;;5053393;28;20050;-83
2022/03/27 01:15:49;;;;;;;15.55;7.50;;;6.70;99.90;;;;;;5052553;28;20052;-83
2022/03/27 01:18:15;;;;;;;17.15;7.28;;;6.70;99.90;;;;;;5053015;28;20161;-83
2022/03/27 01:20:41;;;;;;;13.93;8.07;;;6.70;99.90;;;;;;5041420;28;20610;-83
2022/03/27 01:23:15;;;;;;;18.42;8.38;;;6.70;99.90;;;;;;5054866;28;20037;-83
2022/03/27 01:25:47;;;;;;;18.45;7.97;;;6.70;99.90;;;;;;5052907;28;20055;-83
2022/03/27 01:28:17;;;;;;;17.73;8.55;;;6.70;99.90;;;;;;5050383;28;20032;-83
2022/03/27 01:30:45;;;;;;;14.68;8.18;;;6.70;99.90;;;;;;5053860;28;20086;-83
2022/03/27 01:33:13;;;;;;;16.20;7.95;;;6.70;99.90;;;;;;5036491;28;20064;-83
2022/03/27 01:35:39;;;;;;;12.57;7.35;;;6.70;99.90;;;;;;5036758;28;20285;-83
2022/03/27 01:38:05;;;;;;;14.93;7.70;;;6.70;99.90;;;;;;5050772;28;20036;-83
2022/03/27 01:40:30;;;;;;;14.15;7.32;;;6.70;99.90;;;;;;5037787;28;20032;-83
2022/03/27 01:42:56;;;;;;;11.88;6.93;;;6.70;99.90;;;;;;5037565;28;20044;-83
2022/03/27 01:45:23;;;;;;;11.88;6.72;;;6.60;99.90;;;;;;5053902;28;20045;-83
2022/03/27 01:47:52;;;;;;;14.85;6.90;;;6.70;99.90;;;;;;5035730;28;20041;-83
2022/03/27 01:50:21;;;;;;;19.50;7.60;;;6.60;99.90;;;;;;5021201;28;20594;-83
2022/03/27 01:52:50;;;;;;;19.40;8.60;;;6.60;99.90;;;;;;5053624;28;20102;-83
2022/03/27 01:55:16;;;;;;;19.27;7.78;;;6.60;99.90;;;;;;5036706;28;20221;-83
2022/03/27 01:57:45;;;;;;;18.50;7.38;;;6.60;99.90;;;;;;5038080;28;20044;-84
2022/03/27 02:00:34;;;;;;;18.10;7.10;;;6.60;99.90;;;;;;5068159;28;20483;-83
2022/03/27 02:02:59;;;;;;;13.52;6.80;;;6.50;99.90;;;;;;5062024;28;20052;-83
2022/03/27 02:05:25;;;;;;;16.80;7.13;;;6.60;99.90;;;;;;5036254;28;20140;-82
2022/03/27 02:07:51;;;;;;;15.80;8.38;;;6.50;99.90;;;;;;5051017;28;20507;-83
2022/03/27 02:10:18;;;;;;;19.27;9.18;;;6.60;99.90;;;;;;5034640;28;20044;-83
2022/03/27 02:12:43;;;;;;;20.50;8.05;;;6.60;99.90;;;;;;5038537;28;20667;-83
2022/03/27 02:15:10;;;;;;;15.27;7.63;;;6.50;99.90;;;;;;5051178;28;20476;-83
2022/03/27 02:17:39;;;;;;;14.90;7.75;;;6.60;99.90;;;;;;5036305;28;20029;-83
2022/03/27 02:20:06;;;;;;;14.10;8.43;;;6.50;99.90;;;;;;5053654;28;20399;-83
2022/03/27 02:22:32;;;;;;;18.50;8.38;;;6.50;99.90;;;;;;5068403;28;20473;-83
2022/03/27 02:24:58;;;;;;;16.60;7.72;;;6.50;99.90;;;;;;5039502;28;20048;-83
2022/03/27 02:27:23;;;;;;;17.83;7.60;;;6.60;99.90;;;;;;5056539;28;20514;-83
2022/03/27 02:29:49;;;;;;;17.95;7.53;;;6.60;99.90;;;;;;5073786;28;20036;-83
2022/03/27 02:32:15;;;;;;;16.27;8.13;;;6.50;99.90;;;;;;5024937;28;20037;-83
2022/03/27 02:34:44;;;;;;;18.58;8.57;;;6.60;99.90;;;;;;5055543;28;20052;-83
2022/03/27 02:37:09;;;;;;;16.40;8.02;;;6.50;99.90;;;;;;5054824;28;20044;-83
2022/03/27 02:39:35;;;;;;;19.67;7.50;;;6.60;99.90;;;;;;5053781;28;20025;-83
2022/03/27 02:42:01;;;;;;;19.00;8.13;;;6.50;99.90;;;;;;5055170;28;20538;-82
2022/03/27 02:44:26;;;;;;;15.13;7.50;;;6.50;99.90;;;;;;5035757;28;20048;-83
2022/03/27 02:46:52;;;;;;;18.33;7.60;;;6.50;99.90;;;;;;5039229;28;20036;-83
2022/03/27 02:49:18;;;;;;;15.40;8.32;;;6.50;99.90;;;;;;5069548;28;20032;-83
2022/03/27 02:51:47;;;;;;;24.15;8.55;;;6.50;99.90;;;;;;5051524;28;20469;-83
2022/03/27 02:54:16;;;;;;;17.67;7.80;;;6.50;99.90;;;;;;5064898;28;20032;-83
2022/03/27 02:56:41;;;;;;;17.88;8.30;;;6.40;99.90;;;;;;5041434;28;20467;-83
2022/03/27 02:59:07;;;;;;;18.27;8.10;;;6.40;99.90;;;;;;5057436;28;20036;-83
2022/03/27 03:01:33;;;;;;;19.65;8.40;;;6.40;99.90;;;;;;5041221;28;20052;-83
2022/03/27 03:04:05;;;;;;;18.33;8.18;;;6.40;99.90;;;;;;5056827;28;20128;-83
2022/03/27 03:06:41;;;;;;;19.27;8.77;;;6.30;99.90;;;;;;5058923;28;22389;-83
2022/03/27 03:09:14;;;;;;;17.50;8.38;;;6.30;99.90;;;;;;5043615;28;20102;-83
2022/03/27 03:12:06;;;;;;;22.08;9.30;;;6.20;99.90;;;;;;5040593;28;20134;-84
2022/03/27 03:14:35;;;;;;;22.30;9.95;;;6.20;99.90;;;;;;5065616;28;20345;-84
2022/03/27 03:17:08;;;;;;;23.48;9.60;;;6.10;99.90;;;;;;5037337;28;20397;-83
2022/03/27 03:19:34;;;;;;;28.00;10.20;;;6.20;99.90;;;;;;5038167;28;20125;-83
2022/03/27 03:22:00;;;;;;;26.05;10.50;;;6.20;99.90;;;;;;5056261;28;20146;-83
2022/03/27 03:24:31;;;;;;;23.77;10.15;;;6.20;99.90;;;;;;5056042;28;20119;-83
2022/03/27 03:26:57;;;;;;;30.85;11.73;;;6.20;99.90;;;;;;5054715;28;20047;-83
2022/03/27 03:29:26;;;;;;;28.30;11.90;;;6.20;99.90;;;;;;5049066;28;20459;-83
2022/03/27 03:31:57;;;;;;;;;;;6.30;99.90;;;;;;5056138;28;20062;-83
2022/03/27 03:34:26;;;;;;;28.13;11.23;;;6.20;99.90;;;;;;5052673;28;19920;-84
2022/03/27 03:36:55;;;;;;;34.95;12.35;;;6.30;99.90;;;;;;5056458;28;20522;-83
2022/03/27 03:39:23;;;;;;;40.35;12.57;;;6.30;99.90;;;;;;5055166;28;20032;-83
2022/03/27 03:41:49;;;;;;;41.40;13.15;;;6.20;99.90;;;;;;5056989;28;20039;-83
2022/03/27 03:44:15;;;;;;;40.85;12.48;;;6.20;99.90;;;;;;5056534;28;20037;-83
2022/03/27 03:46:43;;;;;;;41.72;12.95;;;6.10;99.90;;;;;;5054866;28;20137;-83
2022/03/27 03:49:20;;;;;;;58.20;16.17;;;6.10;99.90;;;;;;5038212;28;20071;-83
2022/03/27 03:51:46;;;;;;;43.15;14.65;;;6.20;99.90;;;;;;5055120;28;20200;-83
2022/03/27 03:54:13;;;;;;;45.00;13.55;;;6.10;99.90;;;;;;5041461;28;20143;-83
2022/03/27 03:56:41;;;;;;;33.40;12.25;;;6.20;99.90;;;;;;5056124;28;20060;-83
2022/03/27 03:59:07;;;;;;;39.88;13.57;;;6.20;99.90;;;;;;5053426;28;20361;-83
2022/03/27 04:01:33;;;;;;;53.70;13.80;;;6.20;99.90;;;;;;5037898;28;20070;-83
2022/03/27 04:03:58;;;;;;;59.05;13.32;;;6.10;99.90;;;;;;5054932;28;20248;-83
2022/03/27 04:06:27;;;;;;;78.47;13.45;;;6.10;99.90;;;;;;5053692;28;20480;-83
2022/03/27 04:08:56;;;;;;;90.22;12.35;;;6.00;99.90;;;;;;5054772;28;20495;-83
2022/03/27 04:11:21;;;;;;;146.43;15.25;;;6.00;99.90;;;;;;5055400;28;20076;-83
2022/03/27 04:13:47;;;;;;;122.70;13.50;;;5.90;99.90;;;;;;5040312;28;20028;-83
2022/03/27 04:16:13;;;;;;;236.52;20.35;;;5.80;99.90;;;;;;5056330;28;20075;-83
2022/03/27 04:18:39;;;;;;;157.23;14.23;;;5.90;99.90;;;;;;5053407;28;20474;-83
2022/03/27 04:21:09;;;;;;;172.13;16.30;;;5.80;99.90;;;;;;5055827;28;20091;-83
2022/03/27 04:23:47;;;;;;;207.55;16.42;;;5.80;99.90;;;;;;5038234;28;20119;-83
2022/03/27 04:26:18;;;;;;;117.97;13.63;;;5.70;99.90;;;;;;5038507;28;20335;-83
2022/03/27 04:28:45;;;;;;;294.10;17.23;;;5.70;99.90;;;;;;5034573;28;20504;-83
2022/03/27 04:31:11;;;;;;;147.43;10.88;;;5.60;99.90;;;;;;5038192;28;20040;-83
2022/03/27 04:33:36;;;;;;;213.93;15.93;;;5.70;99.90;;;;;;5051471;28;20043;-83
2022/03/27 04:36:09;;;;;;;185.70;14.00;;;5.60;99.90;;;;;;5053770;28;20039;-83
2022/03/27 04:38:40;;;;;;;160.25;12.27;;;5.50;99.90;;;;;;5050931;28;20372;-83
2022/03/27 04:41:06;;;;;;;116.95;9.50;;;5.40;99.90;;;;;;5055897;28;20052;-83
2022/03/27 04:43:32;;;;;;;199.48;12.18;;;5.40;99.90;;;;;;5053048;28;20062;-83
2022/03/27 04:45:58;;;;;;;157.93;11.38;;;5.30;99.90;;;;;;5038445;28;20036;-83
2022/03/27 04:48:25;;;;;;;216.30;13.00;;;5.20;99.90;;;;;;5038144;28;20423;-83
2022/03/27 04:50:53;;;;;;;139.07;9.60;;;5.20;99.90;;;;;;5024661;28;20040;-82
2022/03/27 04:53:21;;;;;;;127.65;8.75;;;5.10;99.90;;;;;;5038608;28;20422;-83
2022/03/27 04:55:47;;;;;;;143.90;10.52;;;5.00;99.90;;;;;;5055369;28;20059;-82
2022/03/27 04:58:21;;;;;;;167.55;10.75;;;5.00;99.90;;;;;;5034435;28;20041;-83
2022/03/27 05:00:53;;;;;;;96.75;7.55;;;4.90;99.90;;;;;;5038949;28;20132;-82
2022/03/27 05:03:21;;;;;;;115.43;8.40;;;4.80;99.90;;;;;;5037882;28;20247;-83
2022/03/27 05:05:46;;;;;;;98.53;7.38;;;4.80;99.90;;;;;;5037626;28;20033;-83
2022/03/27 05:08:12;;;;;;;76.13;5.75;;;4.70;99.90;;;;;;5048650;28;20033;-83
2022/03/27 05:10:38;;;;;;;77.10;6.35;;;4.70;99.90;;;;;;5037926;28;20495;-83
2022/03/27 05:13:05;;;;;;;165.43;10.90;;;4.50;99.90;;;;;;5050070;28;20028;-83
2022/03/27 05:15:30;;;;;;;36.65;4.75;;;4.60;99.90;;;;;;5038912;28;20068;-83
2022/03/27 05:18:05;;;;;;;36.55;4.90;;;4.60;99.90;;;;;;5036873;28;20060;-83
2022/03/27 05:20:38;;;;;;;55.08;5.75;;;4.40;99.90;;;;;;5063558;28;20032;-83
2022/03/27 05:23:09;;;;;;;76.15;5.68;;;4.40;99.90;;;;;;5037938;28;20388;-83
2022/03/27 05:25:48;;;;;;;45.08;4.90;;;4.40;99.90;;;;;;5056572;28;20032;-83
2022/03/27 05:28:19;;;;;;;53.58;5.05;;;4.40;99.90;;;;;;5069232;28;20045;-83
2022/03/27 05:30:46;;;;;;;60.50;5.45;;;4.30;99.90;;;;;;5054621;28;20033;-83
2022/03/27 05:33:12;;;;;;;57.47;4.88;;;4.40;99.90;;;;;;5038342;28;20052;-82
2022/03/27 05:35:38;;;;;;;64.47;5.18;;;4.30;99.90;;;;;;5040315;28;20082;-83
2022/03/27 05:38:07;;;;;;;46.60;4.28;;;4.30;99.90;;;;;;5049308;28;20447;-83
2022/03/27 05:40:33;;;;;;;45.78;4.00;;;4.20;99.90;;;;;;5054156;28;20379;-83
2022/03/27 05:43:02;;;;;;;25.05;3.90;;;4.20;99.90;;;;;;5020287;28;20124;-83
2022/03/27 05:45:42;;;;;;;16.10;3.78;;;4.20;99.90;;;;;;5053329;28;20500;-83
2022/03/27 05:48:16;;;;;;;23.40;3.33;;;4.20;99.90;;;;;;5062462;28;20040;-83
2022/03/27 05:50:42;;;;;;;23.13;4.32;;;4.20;99.90;;;;;;5036855;28;20404;-83
2022/03/27 05:53:09;;;;;;;21.35;3.80;;;4.20;99.90;;;;;;5051129;28;20040;-83
2022/03/27 05:55:39;;;;;;;33.65;4.55;;;4.20;99.90;;;;;;5043476;28;20028;-82
2022/03/27 05:58:05;;;;;;;24.65;4.25;;;4.30;99.90;;;;;;5056046;28;20043;-83
2022/03/27 06:00:34;;;;;;;27.95;4.22;;;4.40;99.90;;;;;;5038292;28;20048;-83
2022/03/27 06:03:12;;;;;;;30.23;4.88;;;4.40;99.90;;;;;;5040988;28;20050;-83
2022/03/27 06:05:37;;;;;;;21.70;4.07;;;4.50;99.90;;;;;;5052498;28;20067;-83
2022/03/27 06:08:06;;;;;;;26.65;3.97;;;4.40;99.90;;;;;;5069075;28;20445;-83
2022/03/27 06:10:35;;;;;;;15.27;3.65;;;4.60;99.90;;;;;;5059304;28;20049;-82
2022/03/27 06:13:05;;;;;;;42.05;4.30;;;4.70;99.90;;;;;;5056641;28;20375;-83
2022/03/27 06:15:32;;;;;;;13.32;4.68;;;4.70;99.90;;;;;;5054119;28;20089;-83
2022/03/27 06:18:09;;;;;;;11.15;4.07;;;4.70;99.90;;;;;;5037841;28;20476;-83
2022/03/27 06:20:41;;;;;;;7.78;3.83;;;4.90;99.90;;;;;;5041155;28;20324;-83
2022/03/27 06:23:10;;;;;;;24.90;4.85;;;5.00;99.90;;;;;;5056325;28;20037;-83
2022/03/27 06:25:38;;;;;;;10.05;4.32;;;5.00;99.90;;;;;;5054166;28;20056;-83
2022/03/27 06:28:10;;;;;;;10.57;4.82;;;5.20;99.90;;;;;;5035738;28;20309;-83
2022/03/27 06:30:47;;;;;;;8.65;4.20;;;5.30;99.90;;;;;;5071661;28;20052;-82
2022/03/27 06:33:15;;;;;;;10.73;5.00;;;5.40;99.90;;;;;;5039429;28;20337;-82
2022/03/27 06:35:44;;;;;;;10.60;5.07;;;5.40;99.90;;;;;;5058596;28;20093;-83
2022/03/27 06:38:10;;;;;;;7.90;4.88;;;5.50;99.90;;;;;;5041397;28;20380;-83
2022/03/27 06:40:35;;;;;;;11.13;5.07;;;5.80;99.90;;;;;;5042085;28;20217;-82
2022/03/27 06:43:01;;;;;;;10.98;5.50;;;5.90;99.90;;;;;;5073410;28;20106;-82
2022/03/27 06:45:30;;;;;;;15.48;5.45;;;5.90;99.90;;;;;;5056679;28;20498;-83
2022/03/27 06:47:56;;;;;;;21.40;6.82;;;6.00;99.90;;;;;;5056631;28;20032;-83
2022/03/27 06:50:22;;;;;;;16.55;6.40;;;6.10;99.90;;;;;;5055387;28;20619;-82
2022/03/27 06:52:48;;;;;;;24.17;7.55;;;6.00;99.90;;;;;;5040274;28;20462;-83
2022/03/27 06:55:22;;;;;;;23.13;7.15;;;6.20;99.90;;;;;;5039957;28;20024;-83
2022/03/27 06:57:48;;;;;;;25.00;6.68;;;6.20;99.90;;;;;;5052361;28;20040;-83
2022/03/27 07:03:06;;;;;;;39.65;9.80;;;6.40;99.90;;;;;;5053175;28;20488;-82
2022/03/27 07:05:39;;;;;;;46.22;9.98;;;6.70;99.90;;;;;;5049283;28;20332;-83
2022/03/27 07:08:07;;;;;;;52.40;11.07;;;6.70;99.90;;;;;;5057085;28;20190;-82
2022/03/27 07:10:37;;;;;;;48.38;10.82;;;6.90;99.90;;;;;;5056343;28;20055;-83
2022/03/27 07:13:08;;;;;;;42.17;10.38;;;6.90;99.90;;;;;;5056340;28;20169;-82
2022/03/27 07:15:35;;;;;;;42.83;9.88;;;7.10;99.90;;;;;;5058542;28;20151;-83
2022/03/27 07:18:10;;;;;;;48.55;9.80;;;7.20;99.90;;;;;;5058168;28;20033;-82
2022/03/27 07:20:44;;;;;;;52.95;9.68;;;7.00;99.90;;;;;;5066889;28;20028;-82
2022/03/27 07:23:20;;;;;;;48.67;10.38;;;7.00;99.90;;;;;;5048800;28;20415;-83
2022/03/27 07:25:48;;;;;;;54.70;10.63;;;7.20;99.90;;;;;;5054114;28;20383;-82
2022/03/27 07:28:20;;;;;;;56.72;10.85;;;7.20;99.90;;;;;;5040321;28;20508;-82
2022/03/27 07:30:49;;;;;;;51.03;10.25;;;7.20;99.90;;;;;;5037595;28;20094;-83
2022/03/27 07:33:16;;;;;;;53.35;10.40;;;7.20;99.90;;;;;;5038416;28;20419;-82
2022/03/27 07:35:44;;;;;;;44.20;11.18;;;7.00;99.90;;;;;;5053887;28;20479;-82
2022/03/27 07:38:10;;;;;;;43.92;10.20;;;7.10;99.90;;;;;;5033713;28;20029;-82
2022/03/27 07:40:36;;;;;;;50.92;9.65;;;7.20;99.90;;;;;;5040197;28;20626;-83
2022/03/27 07:43:11;;;;;;;40.35;9.23;;;7.50;99.90;;;;;;5039021;28;20083;-83
2022/03/27 07:45:37;;;;;;;40.97;9.25;;;7.60;99.90;;;;;;5053949;28;20051;-82
2022/03/27 07:48:03;;;;;;;49.33;10.23;;;7.40;99.90;;;;;;5056699;28;20040;-83
2022/03/27 07:50:35;;;;;;;39.60;9.07;;;7.70;99.90;;;;;;5039957;28;20119;-82
2022/03/27 07:53:08;;;;;;;39.13;8.88;;;7.70;99.90;;;;;;5056314;28;20051;-83
2022/03/27 07:55:36;;;;;;;43.13;9.80;;;8.00;99.90;;;;;;5052598;28;20029;-83
2022/03/27 07:58:02;;;;;;;38.35;8.73;;;8.10;99.90;;;;;;5039149;28;20178;-83
2022/03/27 08:00:28;;;;;;;37.80;9.05;;;8.00;99.90;;;;;;5055706;28;20543;-83
2022/03/27 08:02:55;;;;;;;37.55;9.48;;;7.90;99.90;;;;;;5055993;28;20219;-83
2022/03/27 08:05:23;;;;;;;37.13;8.55;;;8.10;99.90;;;;;;5039532;28;20064;-83
2022/03/27 08:07:52;;;;;;;44.58;9.45;;;8.60;99.90;;;;;;5056815;28;20400;-82
2022/03/27 08:10:21;;;;;;;47.40;9.75;;;8.60;99.90;;;;;;5067146;28;20044;-83
2022/03/27 08:12:47;;;;;;;38.00;9.10;;;8.90;99.90;;;;;;5041944;28;20059;-83
2022/03/27 08:15:17;;;;;;;33.60;8.38;;;9.00;99.90;;;;;;5035490;28;20033;-83
2022/03/27 08:17:45;;;;;;;39.17;8.77;;;8.80;99.90;;;;;;5038154;28;20036;-82
2022/03/27 08:20:11;;;;;;;36.47;8.43;;;8.80;99.90;;;;;;5050538;28;20075;-82
2022/03/27 08:22:37;;;;;;;32.53;8.68;;;8.90;99.90;;;;;;5054506;28;20084;-83
2022/03/27 08:25:06;;;;;;;39.05;8.90;;;8.80;99.90;;;;;;5039020;28;20041;-82
2022/03/27 08:27:32;;;;;;;40.30;9.35;;;9.00;99.90;;;;;;5057599;28;20154;-83
2022/03/27 08:30:13;;;;;;;33.58;8.35;;;9.20;99.90;;;;;;5039976;28;20075;-83
2022/03/27 08:32:44;;;;;;;35.03;8.80;;;9.30;99.90;;;;;;5047831;28;20055;-83
2022/03/27 08:35:11;;;;;;;32.55;8.32;;;9.30;99.90;;;;;;5053341;28;20025;-83
2022/03/27 08:37:39;;;;;;;42.17;8.63;;;9.00;99.90;;;;;;5053734;28;20476;-82
2022/03/27 08:40:05;;;;;;;36.92;8.45;;;9.20;99.90;;;;;;5054467;28;20202;-83
2022/03/27 08:42:31;;;;;;;33.30;8.40;;;9.30;99.90;;;;;;5054096;28;20170;-83
2022/03/27 08:45:02;;;;;;;28.90;8.13;;;9.20;99.90;;;;;;5052365;28;20148;-83
2022/03/27 08:47:34;;;;;;;36.50;9.52;;;9.30;99.90;;;;;;5039986;28;20047;-83
2022/03/27 08:50:32;;;;;;;37.08;9.40;;;9.70;99.90;;;;;;5047650;28;20434;-83
2022/03/27 08:53:04;;;;;;;29.33;7.65;;;9.50;99.90;;;;;;5051843;28;20037;-83
2022/03/27 08:55:46;;;;;;;38.13;8.75;;;9.50;99.90;;;;;;5038974;28;20040;-83
2022/03/27 08:58:15;;;;;;;36.63;8.85;;;9.40;99.90;;;;;;5070349;28;20052;-83
2022/03/27 09:00:41;;;;;;;39.17;8.25;;;8.90;99.90;;;;;;5038780;28;20109;-83
2022/03/27 09:03:15;;;;;;;33.20;8.50;;;9.00;99.90;;;;;;5038935;28;20040;-83
2022/03/27 09:05:43;;;;;;;32.05;8.75;;;9.30;99.90;;;;;;5054691;28;20036;-83
2022/03/27 09:08:13;;;;;;;33.40;8.70;;;9.70;99.90;;;;;;5035211;28;20115;-83
2022/03/27 09:10:41;;;;;;;34.47;8.13;;;9.80;99.90;;;;;;5039063;28;20164;-83
2022/03/27 09:13:33;;;;;;;35.05;8.35;;;9.90;33.40;;;;;;5038378;28;20471;-83
2022/03/27 09:16:08;;;;;;;39.55;8.98;;;10.10;92.80;;;;;;5036549;28;20049;-83
2022/03/27 09:18:55;;;;;;;29.58;7.47;;;9.80;72.60;;;;;;5038276;28;20128;-83
2022/03/27 09:21:28;;;;;;;34.63;7.32;;;9.90;76.00;;;;;;5039696;28;20139;-83
2022/03/27 09:24:04;;;;;;;30.63;7.53;;;9.80;1.00;;;;;;5070986;28;20040;-83
2022/03/27 09:26:32;;;;;;;32.67;7.38;;;10.00;1.00;;;;;;5049140;28;20472;-82
2022/03/27 09:29:10;;;;;;;30.80;6.90;;;10.10;1.00;;;;;;5055438;28;20498;-83
2022/03/27 09:31:39;;;;;;;30.13;6.57;;;10.20;99.90;;;;;;5068175;28;20049;-83
2022/03/27 09:34:07;;;;;;;30.33;7.28;;;10.00;99.90;;;;;;5057469;28;20531;-83
2022/03/27 09:36:42;;;;;;;30.30;8.10;;;10.20;1.00;;;;;;5074199;28;20051;-83
2022/03/27 09:39:18;;;;;;;27.63;7.00;;;10.40;73.60;;;;;;5053827;28;20033;-83
2022/03/27 09:41:53;;;;;;;33.35;8.07;;;10.10;99.90;;;;;;5048670;28;20051;-83
2022/03/27 09:44:19;;;;;;;33.65;6.93;;;10.60;1.00;;;;;;5042113;28;20056;-83
2022/03/27 09:46:57;;;;;;;27.67;7.28;;;10.60;99.90;;;;;;5053663;28;20431;-83
2022/03/27 09:49:34;;;;;;;24.63;6.53;;;10.90;99.90;;;;;;5042381;28;20071;-83
2022/03/27 09:52:10;;;;;;;24.45;6.10;;;10.80;99.90;;;;;;5043244;28;20051;-83
2022/03/27 09:54:50;;;;;;;26.90;6.63;;;10.70;99.90;;;;;;5045688;28;20036;-84
2022/03/27 09:57:51;;;;;;;27.13;6.75;;;10.80;99.90;;;;;;5039621;28;20459;-83
2022/03/27 10:00:21;;;;;;;26.30;6.88;;;11.10;99.90;;;;;;5053683;28;20132;-83
2022/03/27 10:02:51;;;;;;;25.60;6.03;;;11.40;99.90;;;;;;5041167;28;20657;-83
2022/03/27 10:05:21;;;;;;;26.90;6.05;;;11.70;1.00;;;;;;5044276;28;20840;-84
2022/03/27 10:08:01;;;;;;;28.92;6.45;;;11.70;99.90;;;;;;5054946;28;20043;-83
2022/03/27 10:10:30;;;;;;;27.02;6.47;;;11.80;64.50;;;;;;5044523;28;20060;-87
2022/03/27 10:13:15;;;;;;;28.55;6.40;;;12.00;1.00;;;;;;5043923;28;20068;-85
2022/03/27 10:15:45;;;;;;;27.40;5.88;;;12.20;1.00;;;;;;5049812;28;20098;-83
2022/03/27 10:18:20;;;;;;;27.77;6.07;;;12.40;99.90;;;;;;5051286;28;20412;-85
2022/03/27 10:20:57;;;;;;;25.90;6.60;;;12.20;99.90;;;;;;5047434;28;20036;-85
2022/03/27 10:23:34;;;;;;;26.25;6.40;;;12.50;1.00;;;;;;5058787;28;20464;-86
2022/03/27 10:26:05;;;;;;;26.25;6.72;;;12.50;99.90;;;;;;5042648;28;20494;-85
2022/03/27 10:28:34;;;;;;;22.02;5.28;;;12.80;1.00;;;;;;5043480;28;20198;-85
2022/03/27 10:31:00;;;;;;;21.95;5.93;;;12.90;99.90;;;;;;5043708;28;20070;-85
2022/03/27 10:33:31;;;;;;;31.58;6.10;;;12.80;99.90;;;;;;5040205;28;20128;-85
2022/03/27 10:36:11;;;;;;;27.50;5.70;;;12.10;99.90;;;;;;5041947;28;20028;-85
2022/03/27 10:38:53;;;;;;;22.65;6.50;;;12.40;99.90;;;;;;5055538;28;20055;-85
2022/03/27 10:41:47;;;;;;;25.17;5.95;;;12.20;99.90;;;;;;5045690;28;20045;-85
2022/03/27 10:44:38;;;;;;;23.63;5.93;;;12.50;99.90;;;;;;5041466;28;20524;-85
2022/03/27 10:47:15;;;;;;;22.23;5.40;;;12.90;99.90;;;;;;5053931;28;20119;-86
2022/03/27 10:50:20;;;;;;;32.75;7.32;;;12.40;24.00;;;;;;5070461;28;20045;-85
2022/03/27 10:52:56;;;;;;;26.80;6.18;;;12.40;99.90;;;;;;5056830;28;20059;-85
2022/03/27 10:55:46;;;;;;;25.13;6.03;;;12.90;99.90;;;;;;5042952;28;20045;-86
2022/03/27 10:58:36;;;;;;;25.02;6.20;;;12.80;99.90;;;;;;5067192;28;20112;-86
2022/03/27 11:01:29;;;;;;;27.38;6.50;;;13.20;99.90;;;;;;5074299;28;20131;-86
2022/03/27 11:04:09;;;;;;;28.88;7.00;;;13.10;11.50;;;;;;5052112;28;20048;-85
2022/03/27 11:06:40;;;;;;;27.60;6.18;;;12.80;99.90;;;;;;5055247;28;20072;-85
2022/03/27 11:09:08;;;;;;;22.35;5.47;;;13.10;99.90;;;;;;5055290;28;20048;-85
2022/03/27 11:11:37;;;;;;;24.40;6.03;;;13.30;91.20;;;;;;5055667;28;20067;-85
2022/03/27 11:14:09;;;;;;;18.45;5.07;;;13.10;1.00;;;;;;5042016;28;20048;-86
2022/03/27 11:17:21;;;;;;;25.55;6.10;;;13.00;1.00;;;;;;5048641;28;20029;-84
2022/03/27 11:19:51;;;;;;;21.27;5.63;;;13.30;1.00;;;;;;5008492;28;20052;-86
2022/03/27 11:22:48;;;;;;;23.23;5.75;;;13.60;99.40;;;;;;5041877;28;20477;-86
2022/03/27 11:25:33;;;;;;;23.50;6.07;;;13.20;1.00;;;;;;5049670;28;20047;-86
2022/03/27 11:28:11;;;;;;;21.60;5.22;;;13.70;1.00;;;;;;5057389;28;20068;-85
2022/03/27 11:30:52;;;;;;;20.98;5.22;;;13.80;99.90;;;;;;5052841;28;20048;-86
2022/03/27 11:33:23;;;;;;;22.50;5.03;;;14.00;1.00;;;;;;5055456;28;20101;-85
2022/03/27 11:36:01;;;;;;;23.65;5.63;;;14.40;99.90;;;;;;5053180;28;20066;-86
2022/03/27 11:38:29;;;;;;;19.83;5.45;;;14.50;99.90;;;;;;5042483;28;20033;-85
2022/03/27 11:40:55;;;;;;;25.42;5.78;;;14.70;1.00;;;;;;5055879;28;20055;-85
2022/03/27 11:43:35;;;;;;;25.10;5.53;;;14.90;1.00;;;;;;5053319;28;20151;-86
2022/03/27 11:46:02;;;;;;;25.30;6.00;;;14.80;99.90;;;;;;5062649;28;20119;-87
2022/03/27 11:48:28;;;;;;;25.42;5.07;;;14.40;99.90;;;;;;5066595;28;20547;-85
2022/03/27 11:50:54;;;;;;;17.40;4.93;;;14.10;99.90;;;;;;5067069;28;20098;-85
2022/03/27 11:53:34;;;;;;;25.65;5.43;;;14.40;99.90;;;;;;5053969;28;20127;-86
2022/03/27 11:56:11;;;;;;;19.70;4.70;;;14.10;99.90;;;;;;5067454;28;20048;-85
2022/03/27 11:58:38;;;;;;;20.42;4.35;;;14.30;99.90;;;;;;5053964;28;20040;-86
2022/03/27 12:01:06;;;;;;;15.85;4.63;;;14.90;99.90;;;;;;5054968;28;20045;-86
2022/03/27 12:03:32;;;;;;;16.67;4.40;;;15.00;99.90;;;;;;5042520;28;20052;-86
2022/03/27 12:06:10;;;;;;;16.25;4.57;;;15.10;99.90;;;;;;5042778;28;20048;-87
2022/03/27 12:08:42;;;;;;;22.20;5.05;;;14.70;99.90;;;;;;5042301;28;20105;-85
2022/03/27 12:11:08;;;;;;;20.73;4.90;;;14.70;99.90;;;;;;5073348;28;20051;-85
2022/03/27 12:13:45;;;;;;;19.70;4.78;;;14.90;99.90;;;;;;5053828;28;20058;-87
2022/03/27 12:16:16;;;;;;;14.15;4.38;;;14.90;99.90;;;;;;5040685;28;20033;-87
2022/03/27 12:18:47;;;;;;;17.80;4.55;;;15.10;99.90;;;;;;5053166;28;20138;-86
2022/03/27 12:21:20;;;;;;;19.00;4.80;;;15.50;99.90;;;;;;5054343;28;20043;-86
2022/03/27 12:23:52;;;;;;;20.90;5.22;;;15.90;99.90;;;;;;5038269;28;20032;-84
2022/03/27 12:32:14;;;;;;;17.88;4.22;;;14.70;99.90;;;;;;5053967;28;20040;-86
2022/03/27 12:34:41;;;;;;;16.02;4.25;;;15.40;99.90;;;;;;5054654;28;20043;-86
2022/03/27 12:37:12;;;;;;;13.43;3.85;;;15.50;99.90;;;;;;5039991;28;20028;-85
2022/03/27 12:39:43;;;;;;;13.38;4.55;;;15.60;99.90;;;;;;5039577;28;20047;-85
2022/03/27 12:42:29;;;;;;;13.30;3.55;;;16.20;99.90;;;;;;5055629;28;20048;-86
2022/03/27 12:45:08;;;;;;;11.60;3.40;;;15.90;99.90;;;;;;5052763;28;20037;-85
2022/03/27 12:47:50;;;;;;;9.57;3.05;;;15.20;99.90;;;;;;5040144;28;20421;-85
2022/03/27 12:50:25;;;;;;;9.63;2.67;;;16.20;99.90;;;;;;5050052;28;20224;-85
2022/03/27 12:52:58;;;;;;;12.32;3.67;;;15.90;99.90;;;;;;5054566;28;20087;-86
2022/03/27 12:55:28;;;;;;;10.75;3.38;;;15.20;99.90;;;;;;5039324;28;20037;-86
2022/03/27 12:57:59;;;;;;;8.30;2.55;;;15.20;99.90;;;;;;5052127;28;20105;-85
2022/03/27 13:00:34;;;;;;;5.38;1.95;;;16.00;99.90;;;;;;5036652;28;20036;-85
2022/03/27 13:03:17;;;;;;;8.82;3.10;;;16.60;99.90;;;;;;5035203;28;20072;-85
2022/03/27 13:06:07;;;;;;;7.05;2.50;;;15.90;99.90;;;;;;5061737;28;20111;-86
2022/03/27 13:08:41;;;;;;;6.85;2.22;;;15.80;99.90;;;;;;5043412;28;20051;-85
2022/03/27 13:11:12;;;;;;;7.38;2.20;;;16.10;99.90;;;;;;5038204;28;20040;-87
2022/03/27 13:13:40;;;;;;;6.13;1.75;;;16.50;99.90;;;;;;5055406;28;20032;-86